Time;durP1;ratioP1;P1;durP2;ratioP2;P2;SDS_P1;SDS_P2;PMS_P1;PMS_P2;Temp;Humidity;BMP_temperature;BMP_pressure;BME280_temperature;BME280_humidity;BME280_pressure;Samples;Min_cycle;Max_cycle;Signal;HPM_P1;HPM_P2
2022/01/25 00:28:27;;;;;;;61.17;38.38;;;4.80;84.50;;;;;;5035129;28;20036;-48
2022/01/25 00:31:36;;;;;;;64.10;38.58;;;4.80;84.60;;;;;;5033699;28;20037;-46
2022/01/25 00:33:54;;;;;;;59.60;37.38;;;4.80;84.60;;;;;;5034267;28;20049;-46
2022/01/25 00:36:21;;;;;;;59.20;37.97;;;4.80;84.60;;;;;;5034864;28;20401;-46
2022/01/25 00:38:48;;;;;;;55.78;36.85;;;4.80;84.50;;;;;;5034555;28;20037;-46
2022/01/25 00:41:14;;;;;;;60.17;40.60;;;4.80;84.70;;;;;;5034358;28;20022;-46
2022/01/25 00:43:42;;;;;;;55.72;35.45;;;4.80;84.80;;;;;;5033585;28;20033;-46
2022/01/25 00:46:11;;;;;;;62.75;37.22;;;4.80;84.90;;;;;;5014814;28;20044;-48
2022/01/25 00:52:04;;;;;;;54.65;35.20;;;4.80;85.00;;;;;;5034535;28;20017;-45
2022/01/25 00:56:43;;;;;;;53.67;36.05;;;4.80;85.00;;;;;;5034395;28;20033;-46
2022/01/25 00:59:11;;;;;;;52.72;35.22;;;4.80;84.90;;;;;;5034088;28;20032;-46
2022/01/25 01:01:37;;;;;;;61.35;37.13;;;4.90;84.90;;;;;;5034273;28;20033;-48
2022/01/25 01:04:06;;;;;;;57.60;35.65;;;4.80;85.10;;;;;;5034008;28;20033;-45
2022/01/25 01:06:33;;;;;;;55.88;36.55;;;4.80;85.20;;;;;;5033057;28;20021;-46
2022/01/25 01:08:58;;;;;;;59.22;37.22;;;4.80;85.20;;;;;;5033892;28;20120;-46
2022/01/25 01:11:33;;;;;;;54.70;34.65;;;4.90;85.30;;;;;;5033106;28;20172;-48
2022/01/25 01:41:26;;;;;;;55.45;33.15;;;4.80;85.70;;;;;;5033576;28;20091;-46
2022/01/25 01:43:56;;;;;;;54.70;33.75;;;4.90;85.70;;;;;;5033274;28;20115;-46
2022/01/25 01:46:34;;;;;;;53.92;35.17;;;4.80;85.70;;;;;;5033400;28;20036;-46
2022/01/25 01:49:02;;;;;;;59.58;36.03;;;4.90;85.80;;;;;;5033446;28;20399;-48
2022/01/25 01:51:36;;;;;;;56.65;35.80;;;4.90;85.80;;;;;;5032008;28;20025;-46
2022/01/25 01:54:09;;;;;;;57.47;36.33;;;4.90;85.90;;;;;;5032213;28;20045;-45
2022/01/25 01:56:38;;;;;;;58.40;37.42;;;4.90;85.90;;;;;;5032855;28;20039;-49
2022/01/25 01:59:06;;;;;;;61.77;36.50;;;4.80;85.90;;;;;;5032189;28;20112;-47
2022/01/25 02:01:35;;;;;;;54.55;36.88;;;4.80;85.90;;;;;;5049073;28;20100;-46
2022/01/25 02:04:02;;;;;;;57.55;36.47;;;4.90;86.10;;;;;;5032900;28;20026;-51
2022/01/25 02:06:28;;;;;;;56.70;35.45;;;4.80;86.00;;;;;;5032047;28;20104;-46
2022/01/25 02:08:54;;;;;;;53.30;33.83;;;4.80;86.10;;;;;;5032459;28;20453;-48
2022/01/25 02:11:20;;;;;;;56.63;34.63;;;4.80;86.20;;;;;;5033013;28;20117;-47
2022/01/25 02:13:49;;;;;;;57.55;35.53;;;4.90;86.20;;;;;;5032370;28;20375;-46
2022/01/25 02:16:39;;;;;;;55.45;36.50;;;4.90;86.20;;;;;;5033113;28;20033;-45
2022/01/25 02:24:39;;;;;;;55.60;36.47;;;4.90;86.10;;;;;;5032789;28;20480;-46
2022/01/25 02:27:06;;;;;;;54.00;35.33;;;4.90;86.10;;;;;;5032979;28;20042;-48
2022/01/25 02:29:31;;;;;;;59.40;37.70;;;4.90;86.20;;;;;;5032841;28;20033;-48
2022/01/25 02:31:57;;;;;;;58.53;36.75;;;4.90;86.30;;;;;;5033055;28;20042;-45
2022/01/25 02:34:24;;;;;;;56.15;37.85;;;4.90;86.20;;;;;;5031995;28;20044;-46
2022/01/25 02:37:04;;;;;;;61.75;38.15;;;4.90;86.20;;;;;;5033037;28;20461;-45
2022/01/25 02:39:31;;;;;;;57.53;35.60;;;4.90;86.20;;;;;;5032844;28;20033;-46
2022/01/25 02:41:57;;;;;;;54.92;34.92;;;4.90;86.20;;;;;;5032964;28;20049;-45
2022/01/25 02:44:28;;;;;;;65.53;39.95;;;4.90;86.30;;;;;;5032440;28;20047;-46
2022/01/25 02:49:30;;;;;;;57.17;34.78;;;4.90;86.40;;;;;;5032886;28;20466;-48
2022/01/25 02:51:55;;;;;;;57.65;34.88;;;4.90;86.30;;;;;;5032517;28;20045;-47
2022/01/25 02:54:21;;;;;;;55.47;35.10;;;4.90;86.40;;;;;;5032722;28;20038;-46
2022/01/25 02:56:47;;;;;;;56.95;34.88;;;4.90;86.30;;;;;;5032678;28;20525;-45
2022/01/25 02:59:15;;;;;;;58.53;36.55;;;4.90;86.30;;;;;;5032733;28;20357;-46
2022/01/25 03:01:42;;;;;;;55.33;36.08;;;4.90;86.40;;;;;;5032174;28;20029;-48
2022/01/25 03:04:08;;;;;;;61.25;36.67;;;4.90;86.40;;;;;;5032449;28;20427;-46
2022/01/25 03:06:35;;;;;;;60.35;36.47;;;4.90;86.30;;;;;;5034324;28;20087;-46
2022/01/25 03:09:03;;;;;;;70.00;40.85;;;4.90;86.40;;;;;;5035921;28;20033;-47
2022/01/25 03:11:29;;;;;;;72.28;43.55;;;4.90;86.30;;;;;;5036200;28;20033;-46
2022/01/25 03:13:57;;;;;;;64.85;40.70;;;4.90;86.50;;;;;;5035781;28;20029;-46
2022/01/25 03:16:39;;;;;;;69.50;42.63;;;4.90;86.40;;;;;;5019492;28;20064;-48
2022/01/25 03:20:03;;;;;;;67.85;40.67;;;4.90;86.40;;;;;;5036242;28;20409;-46
2022/01/25 03:25:03;;;;;;;81.55;47.42;;;4.90;86.50;;;;;;5037980;28;20462;-47
2022/01/25 03:27:28;;;;;;;76.20;44.30;;;4.90;86.50;;;;;;5035996;28;20037;-46
2022/01/25 03:29:54;;;;;;;63.80;40.30;;;4.90;86.50;;;;;;5036128;28;20033;-46
2022/01/25 03:32:19;;;;;;;63.95;40.90;;;4.90;86.60;;;;;;5035235;28;20033;-46
2022/01/25 03:34:45;;;;;;;59.47;37.38;;;4.90;86.60;;;;;;5035536;28;20171;-46
2022/01/25 03:37:11;;;;;;;57.22;36.42;;;4.90;86.60;;;;;;5035875;28;20470;-47
2022/01/25 03:39:36;;;;;;;58.83;39.22;;;4.90;86.60;;;;;;5034890;28;20102;-46
2022/01/25 03:42:07;;;;;;;56.25;36.45;;;4.90;86.70;;;;;;5035600;28;20049;-46
2022/01/25 03:44:32;;;;;;;57.75;36.00;;;4.90;86.80;;;;;;5035456;28;20052;-45
2022/01/25 03:47:04;;;;;;;58.85;37.05;;;4.90;86.70;;;;;;5034806;28;20029;-47
2022/01/25 03:52:15;;;;;;;56.40;36.40;;;4.90;86.70;;;;;;5035511;28;20025;-45
2022/01/25 03:54:41;;;;;;;57.08;35.70;;;4.90;86.70;;;;;;5034182;28;20025;-46
2022/01/25 03:57:09;;;;;;;56.75;37.25;;;4.90;86.80;;;;;;5035208;28;20036;-45
2022/01/25 03:59:35;;;;;;;56.40;37.10;;;4.90;86.70;;;;;;5035084;28;20037;-48
2022/01/25 04:02:00;;;;;;;60.70;37.95;;;4.90;86.70;;;;;;5033912;28;20045;-47
2022/01/25 04:04:29;;;;;;;61.55;38.00;;;4.90;86.70;;;;;;5034906;28;20034;-46
2022/01/25 04:06:54;;;;;;;58.10;37.63;;;4.90;86.70;;;;;;5035018;28;20025;-46
2022/01/25 04:09:21;;;;;;;61.95;37.50;;;4.90;86.70;;;;;;5035224;28;20030;-46
2022/01/25 04:11:49;;;;;;;59.17;37.35;;;4.90;86.70;;;;;;5035481;28;20026;-46
2022/01/25 04:14:15;;;;;;;58.72;35.78;;;4.90;86.80;;;;;;5034890;28;20040;-47
2022/01/25 04:19:42;;;;;;;64.68;39.53;;;4.90;86.80;;;;;;5034806;28;20032;-46
2022/01/25 04:27:06;;;;;;;74.80;43.58;;;4.90;87.00;;;;;;5034984;28;20029;-47
2022/01/25 04:29:32;;;;;;;94.28;53.90;;;4.90;86.90;;;;;;5034869;28;20354;-46
2022/01/25 04:31:57;;;;;;;76.07;45.08;;;4.90;87.10;;;;;;5035183;28;20565;-46
2022/01/25 04:34:37;;;;;;;64.38;38.78;;;4.80;87.10;;;;;;5034369;28;20045;-45
2022/01/25 04:53:11;;;;;;;58.00;37.10;;;4.80;87.30;;;;;;5032922;28;20124;-46
2022/01/25 04:55:45;;;;;;;56.90;35.42;;;4.80;87.40;;;;;;5034537;28;20087;-46
2022/01/25 04:58:18;;;;;;;63.60;38.22;;;4.80;87.50;;;;;;5034207;28;20467;-46
2022/01/25 05:00:46;;;;;;;59.08;37.13;;;4.80;87.60;;;;;;5034009;28;20370;-46
2022/01/25 05:03:16;;;;;;;62.55;38.50;;;4.70;87.60;;;;;;5033624;28;20091;-46
2022/01/25 05:05:56;;;;;;;61.05;37.42;;;4.70;87.70;;;;;;5033870;28;20091;-48
2022/01/25 05:11:01;;;;;;;64.13;39.65;;;4.70;87.70;;;;;;5034519;28;20129;-48
2022/01/25 05:13:41;;;;;;;62.47;37.03;;;4.70;87.80;;;;;;5033447;28;20026;-47
2022/01/25 05:16:28;;;;;;;64.00;36.20;;;4.80;87.80;;;;;;5033820;28;20035;-47
2022/01/25 05:19:09;;;;;;;62.67;37.72;;;4.70;87.70;;;;;;5034027;28;20445;-46
2022/01/25 05:24:21;;;;;;;55.47;37.05;;;4.80;87.80;;;;;;5019165;28;20052;-45
2022/01/25 05:26:46;;;;;;;65.15;35.80;;;4.80;87.70;;;;;;5033422;28;20108;-46
2022/01/25 05:29:12;;;;;;;63.80;37.58;;;4.80;87.80;;;;;;5033650;28;20498;-46
2022/01/25 05:31:38;;;;;;;60.50;37.97;;;4.80;87.80;;;;;;5033411;28;20040;-46
2022/01/25 05:34:07;;;;;;;64.60;38.05;;;4.80;87.70;;;;;;5033361;28;20033;-46
2022/01/25 05:36:34;;;;;;;62.60;36.63;;;4.80;87.80;;;;;;5032420;28;20410;-47
2022/01/25 05:39:05;;;;;;;59.75;36.15;;;4.80;87.80;;;;;;5033122;28;20475;-46
2022/01/25 05:41:33;;;;;;;60.95;37.42;;;4.80;87.70;;;;;;5033701;28;20502;-47
2022/01/25 05:46:43;;;;;;;66.53;39.83;;;4.80;87.70;;;;;;5033630;28;20121;-46
2022/01/25 05:49:08;;;;;;;57.95;35.40;;;4.80;87.80;;;;;;5032372;28;20076;-46
2022/01/25 05:51:34;;;;;;;57.95;36.45;;;4.80;87.80;;;;;;5033492;28;20048;-46
2022/01/25 05:53:59;;;;;;;56.97;36.08;;;4.80;87.80;;;;;;5033366;28;20124;-46
2022/01/25 05:56:27;;;;;;;60.25;37.80;;;4.80;87.70;;;;;;5033351;28;20038;-48
2022/01/25 05:58:53;;;;;;;56.72;37.28;;;4.90;87.80;;;;;;5033343;28;20035;-47
2022/01/25 06:01:19;;;;;;;55.30;35.13;;;4.80;87.70;;;;;;5033388;28;20033;-46
2022/01/25 06:03:45;;;;;;;58.80;37.70;;;4.80;87.80;;;;;;5032355;28;20083;-46
2022/01/25 06:06:11;;;;;;;62.00;37.20;;;4.80;87.90;;;;;;5033506;28;20036;-45
2022/01/25 06:08:37;;;;;;;59.25;38.00;;;4.80;88.00;;;;;;5033149;28;20642;-46
2022/01/25 06:11:03;;;;;;;60.28;36.25;;;4.80;87.90;;;;;;5032895;28;20030;-47
2022/01/25 06:13:29;;;;;;;57.70;35.00;;;4.80;87.90;;;;;;5032534;28;20030;-46
2022/01/25 06:15:55;;;;;;;59.83;35.17;;;4.80;87.90;;;;;;5032868;28;20033;-46
2022/01/25 06:18:20;;;;;;;59.35;35.58;;;4.80;87.90;;;;;;5032819;28;20113;-46
2022/01/25 06:20:46;;;;;;;60.22;37.00;;;4.80;87.70;;;;;;5031426;28;20033;-46
2022/01/25 06:23:11;;;;;;;57.53;35.80;;;4.80;87.90;;;;;;5033089;28;20038;-46
2022/01/25 06:25:41;;;;;;;61.70;36.92;;;4.90;88.00;;;;;;5032959;28;20033;-48
2022/01/25 06:28:07;;;;;;;60.03;36.88;;;4.90;87.80;;;;;;5033061;28;20049;-46
2022/01/25 06:30:33;;;;;;;58.40;37.17;;;4.80;87.80;;;;;;5032772;28;20475;-46
2022/01/25 06:32:59;;;;;;;56.25;34.05;;;4.90;87.80;;;;;;5032688;28;20056;-46
2022/01/25 06:35:29;;;;;;;57.20;35.00;;;4.80;87.90;;;;;;5032115;28;20033;-46
2022/01/25 06:37:55;;;;;;;55.47;35.40;;;4.90;88.00;;;;;;5033324;28;20029;-46
2022/01/25 06:40:20;;;;;;;60.45;35.92;;;4.90;87.80;;;;;;5032732;28;20038;-45
2022/01/25 06:42:46;;;;;;;60.47;36.33;;;4.80;87.90;;;;;;5035827;28;20443;-47
2022/01/25 06:45:16;;;;;;;57.85;36.10;;;4.80;88.00;;;;;;5046622;28;20107;-46
2022/01/25 06:47:43;;;;;;;59.15;36.28;;;4.80;87.90;;;;;;5036972;28;20249;-45
2022/01/25 06:50:10;;;;;;;55.60;32.70;;;4.80;88.00;;;;;;5035822;28;20087;-46
2022/01/25 06:52:38;;;;;;;58.88;36.30;;;4.80;88.00;;;;;;5036502;28;20412;-47
2022/01/25 06:55:09;;;;;;;54.65;33.47;;;4.90;87.90;;;;;;5036971;28;20067;-46
2022/01/25 06:57:36;;;;;;;59.25;37.58;;;4.90;88.00;;;;;;5036664;28;20105;-47
2022/01/25 07:00:07;;;;;;;60.72;36.92;;;4.90;88.10;;;;;;5036018;28;20033;-46
2022/01/25 07:02:33;;;;;;;58.55;34.97;;;4.80;88.00;;;;;;5036555;28;20075;-47
2022/01/25 07:04:59;;;;;;;60.08;35.55;;;4.80;88.10;;;;;;5036391;28;20118;-47
2022/01/25 07:07:28;;;;;;;56.05;35.13;;;4.80;88.20;;;;;;5036442;28;20470;-45
2022/01/25 07:09:54;;;;;;;62.53;36.78;;;4.70;88.30;;;;;;5036816;28;20055;-47
2022/01/25 07:12:20;;;;;;;60.08;36.03;;;4.70;88.20;;;;;;5035495;28;20040;-46
2022/01/25 07:14:45;;;;;;;52.58;32.22;;;4.70;88.30;;;;;;5036448;28;20036;-46
2022/01/25 07:17:13;;;;;;;61.72;35.35;;;4.80;88.30;;;;;;5044557;28;20025;-47
2022/01/25 07:19:39;;;;;;;59.33;34.38;;;4.80;88.20;;;;;;5035469;28;20033;-47
2022/01/25 07:22:05;;;;;;;63.72;34.55;;;4.80;88.30;;;;;;5036560;28;20048;-48
2022/01/25 07:24:30;;;;;;;59.47;33.15;;;4.80;88.30;;;;;;5035417;28;20033;-51
2022/01/25 07:26:56;;;;;;;61.95;36.22;;;4.80;88.40;;;;;;5036086;28;20053;-46
2022/01/25 07:29:22;;;;;;;62.42;37.10;;;4.80;88.40;;;;;;5018735;28;20067;-46
2022/01/25 07:31:47;;;;;;;62.13;36.08;;;4.80;88.30;;;;;;5034831;28;20033;-47
2022/01/25 07:34:13;;;;;;;60.35;36.22;;;4.80;88.20;;;;;;5035876;28;20045;-48
2022/01/25 07:36:41;;;;;;;57.28;34.17;;;4.80;88.20;;;;;;5034796;28;20037;-47
2022/01/25 07:39:07;;;;;;;59.85;34.83;;;4.80;88.30;;;;;;5035304;28;20111;-47
2022/01/25 07:41:32;;;;;;;58.13;33.88;;;4.80;88.30;;;;;;5035813;28;20048;-51
2022/01/25 07:43:59;;;;;;;65.95;37.53;;;4.90;88.30;;;;;;5034634;28;20045;-48
2022/01/25 07:46:26;;;;;;;64.55;37.38;;;4.80;88.30;;;;;;5035846;28;20033;-47
2022/01/25 07:48:52;;;;;;;62.70;35.58;;;4.80;88.40;;;;;;5035387;28;20033;-45
2022/01/25 07:51:17;;;;;;;58.92;35.97;;;4.90;88.30;;;;;;5035698;28;20030;-47
2022/01/25 07:53:45;;;;;;;63.50;38.45;;;4.90;88.40;;;;;;5033471;28;20317;-51
2022/01/25 07:56:11;;;;;;;63.20;38.15;;;4.90;88.30;;;;;;5035633;28;20046;-51
2022/01/25 07:58:37;;;;;;;58.17;35.35;;;4.90;88.40;;;;;;5034963;28;20393;-48
2022/01/25 08:01:04;;;;;;;63.85;37.95;;;4.90;88.40;;;;;;5033725;28;20443;-47
2022/01/25 08:03:32;;;;;;;65.47;36.60;;;4.90;88.30;;;;;;5035485;28;20022;-50
2022/01/25 08:05:58;;;;;;;58.38;33.85;;;4.90;88.40;;;;;;5034357;28;20026;-45
2022/01/25 08:08:23;;;;;;;57.55;34.28;;;4.90;88.50;;;;;;5035042;28;20534;-45
2022/01/25 08:10:49;;;;;;;58.75;36.08;;;4.90;88.30;;;;;;5034774;28;20048;-46
2022/01/25 08:13:15;;;;;;;65.72;38.17;;;4.90;88.30;;;;;;5034251;28;20029;-49
2022/01/25 08:15:41;;;;;;;59.15;35.67;;;4.90;88.40;;;;;;5015769;28;20058;-50
2022/01/25 08:18:06;;;;;;;60.15;34.50;;;4.90;88.30;;;;;;5015639;28;20062;-46
2022/01/25 08:20:32;;;;;;;53.00;33.15;;;4.90;88.20;;;;;;5033879;28;20033;-50
2022/01/25 08:22:59;;;;;;;57.08;34.40;;;4.90;88.30;;;;;;5034828;28;20048;-49
2022/01/25 08:25:25;;;;;;;57.97;34.85;;;4.90;88.20;;;;;;5034829;28;20036;-47
2022/01/25 08:27:50;;;;;;;65.82;38.50;;;5.00;88.20;;;;;;5017738;28;20030;-46
2022/01/25 08:30:16;;;;;;;56.13;35.15;;;4.90;88.20;;;;;;5036821;28;20355;-48
2022/01/25 08:32:47;;;;;;;56.53;35.35;;;4.90;88.20;;;;;;5026004;28;20045;-47
2022/01/25 08:35:13;;;;;;;63.85;37.05;;;5.00;88.30;;;;;;5034756;28;20037;-45
2022/01/25 08:37:38;;;;;;;55.03;33.92;;;5.00;88.20;;;;;;5033345;28;20029;-45
2022/01/25 08:40:06;;;;;;;55.78;32.95;;;5.10;88.30;;;;;;5034359;28;20112;-44
2022/01/25 08:42:33;;;;;;;56.05;33.60;;;5.10;88.20;;;;;;5034510;28;20029;-48
2022/01/25 08:44:59;;;;;;;63.60;33.33;;;5.10;88.10;;;;;;5033860;28;20081;-48
2022/01/25 08:47:25;;;;;;;59.08;34.80;;;5.10;88.10;;;;;;5033801;28;20513;-46
2022/01/25 08:49:50;;;;;;;55.20;35.08;;;5.20;88.10;;;;;;5033440;28;20033;-45
2022/01/25 08:52:16;;;;;;;58.17;35.22;;;5.20;88.00;;;;;;5034178;28;20117;-45
2022/01/25 08:54:42;;;;;;;55.63;32.97;;;5.10;88.00;;;;;;5034522;28;20472;-46
2022/01/25 08:57:07;;;;;;;54.92;31.98;;;5.20;88.10;;;;;;5034295;28;20072;-45
2022/01/25 08:59:33;;;;;;;60.38;35.25;;;5.10;88.10;;;;;;5034427;28;20766;-48
2022/01/25 09:02:00;;;;;;;53.65;32.88;;;5.20;88.20;;;;;;5033236;28;20040;-46
2022/01/25 09:04:27;;;;;;;58.63;34.00;;;5.20;88.10;;;;;;5033031;28;20029;-47
2022/01/25 09:06:53;;;;;;;54.28;32.83;;;5.20;88.00;;;;;;5032978;28;20475;-48
2022/01/25 09:09:20;;;;;;;51.90;31.95;;;5.30;88.10;;;;;;5033026;28;20065;-48
2022/01/25 09:11:48;;;;;;;53.38;31.83;;;5.30;88.10;;;;;;5033416;28;20120;-46
2022/01/25 09:14:13;;;;;;;58.22;33.80;;;5.30;88.00;;;;;;5034081;28;20025;-45
2022/01/25 09:16:40;;;;;;;57.08;31.60;;;5.30;88.00;;;;;;5033234;28;20060;-46
2022/01/25 09:19:06;;;;;;;57.72;31.48;;;5.30;87.80;;;;;;5033795;28;20104;-46
2022/01/25 09:21:32;;;;;;;53.40;30.55;;;5.40;88.00;;;;;;5032903;28;20033;-46
2022/01/25 09:23:58;;;;;;;54.75;32.35;;;5.40;88.00;;;;;;5033568;28;20041;-47
2022/01/25 09:26:24;;;;;;;51.17;29.88;;;5.40;87.90;;;;;;5033483;28;20030;-46
2022/01/25 09:28:53;;;;;;;54.47;31.25;;;5.40;87.90;;;;;;5033642;28;20029;-48
2022/01/25 09:31:21;;;;;;;58.53;33.50;;;5.40;87.90;;;;;;5032723;28;20374;-46
2022/01/25 09:33:47;;;;;;;54.15;31.30;;;5.50;87.80;;;;;;5033771;28;20159;-47
2022/01/25 09:36:13;;;;;;;51.85;31.27;;;5.50;87.60;;;;;;5033655;28;20112;-47
2022/01/25 09:38:39;;;;;;;51.13;32.15;;;5.50;87.50;;;;;;5049090;28;20053;-46
2022/01/25 09:41:05;;;;;;;52.20;31.67;;;5.50;87.60;;;;;;5033504;28;20132;-45
2022/01/25 09:43:31;;;;;;;50.97;30.45;;;5.50;87.70;;;;;;5033226;28;20048;-47
2022/01/25 09:45:57;;;;;;;53.92;30.92;;;5.50;87.60;;;;;;5033790;28;20109;-48
2022/01/25 09:48:24;;;;;;;53.00;32.38;;;5.50;87.60;;;;;;5032906;28;20044;-46
2022/01/25 09:50:50;;;;;;;50.25;30.65;;;5.50;87.70;;;;;;5033951;28;20025;-48
2022/01/25 09:53:16;;;;;;;48.55;30.45;;;5.50;87.70;;;;;;5032118;28;20119;-46
2022/01/25 09:55:43;;;;;;;48.53;29.80;;;5.50;87.70;;;;;;5033453;28;20029;-45
2022/01/25 09:58:14;;;;;;;50.88;30.83;;;5.60;87.80;;;;;;5041342;28;20041;-48
2022/01/25 10:00:44;;;;;;;49.25;29.70;;;5.60;87.60;;;;;;5032683;28;20104;-46
2022/01/25 10:05:44;;;;;;;54.22;31.63;;;5.70;87.40;;;;;;5017893;28;20113;-50
2022/01/25 10:08:14;;;;;;;47.42;32.25;;;5.70;87.40;;;;;;5032352;28;20017;-46
2022/01/25 10:10:41;;;;;;;60.90;34.03;;;5.70;87.50;;;;;;5036161;28;20080;-45
2022/01/25 10:13:07;;;;;;;48.45;30.50;;;5.70;87.60;;;;;;5033242;28;20045;-51
2022/01/25 10:15:32;;;;;;;55.45;32.42;;;5.70;87.80;;;;;;5035533;28;20029;-46
2022/01/25 10:17:58;;;;;;;50.10;33.22;;;5.80;87.90;;;;;;5033085;28;20095;-46
2022/01/25 10:20:26;;;;;;;54.78;32.50;;;5.80;87.80;;;;;;5032821;28;20041;-47
2022/01/25 10:22:52;;;;;;;51.58;32.42;;;5.80;87.70;;;;;;5032871;28;20020;-45
2022/01/25 10:25:32;;;;;;;50.00;30.65;;;5.80;87.60;;;;;;5033099;28;20021;-46
2022/01/25 10:28:03;;;;;;;49.40;29.05;;;5.80;87.80;;;;;;5032812;28;20022;-45
2022/01/25 10:30:37;;;;;;;50.65;32.00;;;5.80;87.80;;;;;;5032361;28;20044;-46
2022/01/25 10:33:15;;;;;;;47.65;28.67;;;5.90;87.70;;;;;;5031839;28;20630;-46
2022/01/25 10:35:43;;;;;;;49.13;29.55;;;5.90;87.60;;;;;;5032590;28;20110;-46
2022/01/25 10:38:32;;;;;;;53.15;32.55;;;5.90;87.70;;;;;;5032685;28;20041;-47
2022/01/25 10:40:59;;;;;;;55.05;34.38;;;6.00;87.60;;;;;;5033305;28;20029;-44
2022/01/25 10:43:27;;;;;;;52.55;31.27;;;5.90;87.70;;;;;;5032633;28;20040;-46
2022/01/25 10:46:12;;;;;;;48.55;29.50;;;6.00;87.90;;;;;;5032572;28;20041;-46
2022/01/25 10:48:39;;;;;;;56.50;31.23;;;6.00;87.80;;;;;;5048875;28;20743;-46
2022/01/25 10:51:27;;;;;;;53.80;32.40;;;6.00;87.90;;;;;;5032770;28;20517;-47
2022/01/25 10:53:57;;;;;;;54.92;31.58;;;6.00;88.00;;;;;;5031700;28;20063;-45
2022/01/25 10:56:23;;;;;;;;;;;6.10;88.00;;;;;;5033234;28;20072;-46
2022/01/25 10:58:49;;;;;;;50.85;29.15;;;6.10;88.00;;;;;;5032706;28;20488;-46
2022/01/25 11:01:32;;;;;;;60.47;36.05;;;6.10;87.90;;;;;;5032870;28;20048;-46
2022/01/25 11:04:07;;;;;;;94.28;46.15;;;6.10;87.90;;;;;;5032471;28;20343;-46
2022/01/25 11:06:35;;;;;;;65.13;38.08;;;6.20;87.80;;;;;;5031812;28;20026;-46
2022/01/25 11:09:04;;;;;;;61.20;33.75;;;6.20;87.80;;;;;;5032509;28;20588;-46
2022/01/25 11:11:44;;;;;;;47.63;31.27;;;6.20;87.90;;;;;;5033033;28;20100;-46
2022/01/25 11:16:54;;;;;;;44.38;28.73;;;6.30;87.80;;;;;;5032205;28;20354;-46
2022/01/25 11:19:21;;;;;;;48.30;30.63;;;6.40;87.90;;;;;;5031611;28;20120;-46
2022/01/25 11:21:51;;;;;;;47.83;29.17;;;6.40;87.70;;;;;;5032109;28;20355;-48
2022/01/25 11:24:18;;;;;;;47.60;30.30;;;6.50;87.70;;;;;;5032349;28;20040;-46
2022/01/25 11:26:46;;;;;;;49.78;29.15;;;6.50;87.40;;;;;;5048821;28;20026;-46
2022/01/25 11:29:12;;;;;;;47.92;29.55;;;6.50;87.20;;;;;;5036160;28;20029;-46
2022/01/25 11:31:41;;;;;;;44.00;27.73;;;6.50;87.20;;;;;;5036327;28;20030;-46
2022/01/25 11:34:11;;;;;;;48.05;28.17;;;6.40;86.90;;;;;;5035429;28;20033;-47
2022/01/25 11:36:54;;;;;;;47.70;29.50;;;6.40;87.00;;;;;;5036071;28;20041;-46
2022/01/25 11:39:22;;;;;;;49.13;29.63;;;6.40;87.10;;;;;;5036010;28;20045;-46
2022/01/25 11:41:48;;;;;;;42.78;27.35;;;6.40;86.80;;;;;;5036147;28;20037;-47
2022/01/25 11:44:21;;;;;;;43.72;25.55;;;6.40;86.90;;;;;;5034137;28;20347;-46
2022/01/25 11:47:16;;;;;;;43.03;29.90;;;6.30;87.30;;;;;;5035642;28;20129;-49
2022/01/25 11:49:54;;;;;;;43.72;27.90;;;6.40;87.50;;;;;;5035921;28;20017;-45
2022/01/25 11:52:25;;;;;;;45.55;27.63;;;6.40;87.60;;;;;;5034202;28;20057;-46
2022/01/25 11:54:54;;;;;;;50.08;28.42;;;6.40;87.70;;;;;;5034070;28;20056;-46
2022/01/25 11:57:23;;;;;;;47.78;28.70;;;6.40;87.80;;;;;;5035394;28;20029;-46
2022/01/25 11:59:57;;;;;;;43.75;27.50;;;6.40;87.70;;;;;;5035408;28;20064;-46
2022/01/25 12:02:49;;;;;;;46.50;27.85;;;6.40;87.60;;;;;;5034837;28;20038;-47
2022/01/25 12:05:24;;;;;;;43.45;27.27;;;6.30;87.70;;;;;;5034510;28;20351;-46
2022/01/25 12:08:09;;;;;;;43.47;26.15;;;6.40;87.80;;;;;;5035490;28;20109;-45
2022/01/25 12:10:42;;;;;;;45.60;27.48;;;6.30;87.80;;;;;;5035061;28;20061;-46
2022/01/25 12:13:16;;;;;;;44.95;27.05;;;6.30;88.00;;;;;;5035643;28;20024;-45
2022/01/25 12:15:42;;;;;;;38.25;25.83;;;6.40;88.10;;;;;;5035398;28;20159;-46
2022/01/25 12:18:27;;;;;;;41.28;26.10;;;6.40;88.00;;;;;;5034316;28;20048;-46
2022/01/25 12:20:53;;;;;;;41.95;25.67;;;6.30;88.00;;;;;;5034157;28;20030;-46
2022/01/25 12:23:43;;;;;;;42.22;26.40;;;6.30;88.20;;;;;;5034453;28;20486;-48
2022/01/25 12:26:14;;;;;;;41.30;25.35;;;6.30;88.10;;;;;;5035227;28;20036;-47
2022/01/25 12:28:44;;;;;;;38.72;24.95;;;6.30;88.10;;;;;;5034690;28;20033;-46
2022/01/25 12:31:17;;;;;;;39.33;24.85;;;6.30;88.30;;;;;;5035050;28;20041;-50
2022/01/25 12:33:45;;;;;;;39.60;25.08;;;6.30;88.30;;;;;;5034440;28;20033;-46
2022/01/25 12:36:11;;;;;;;41.45;24.95;;;6.20;88.40;;;;;;5034787;28;20021;-45
2022/01/25 12:38:51;;;;;;;45.40;24.77;;;6.30;88.60;;;;;;5033919;28;20505;-47
2022/01/25 12:41:24;;;;;;;;;;;6.20;88.40;;;;;;5034459;28;20124;-45
2022/01/25 12:44:00;;;;;;;41.85;24.23;;;6.10;88.60;;;;;;5034508;28;20273;-47
2022/01/25 12:46:30;;;;;;;42.72;24.55;;;6.20;88.80;;;;;;5034771;28;20025;-46
2022/01/25 12:48:59;;;;;;;38.13;24.00;;;6.10;88.90;;;;;;5033569;28;20355;-48
2022/01/25 12:51:34;;;;;;;42.67;26.20;;;6.20;89.00;;;;;;5034856;28;20069;-48
2022/01/25 12:54:21;;;;;;;45.13;24.95;;;6.10;89.00;;;;;;5034236;28;20022;-51
2022/01/25 12:56:50;;;;;;;36.65;22.63;;;6.10;89.20;;;;;;5034816;28;20141;-56
2022/01/25 12:59:19;;;;;;;48.25;25.52;;;6.10;89.30;;;;;;5034418;28;20033;-51
2022/01/25 13:01:46;;;;;;;49.33;30.13;;;6.00;89.30;;;;;;5034558;28;20021;-51
2022/01/25 13:04:12;;;;;;;55.05;29.67;;;6.10;89.50;;;;;;5033047;28;20095;-49
2022/01/25 13:06:40;;;;;;;51.70;29.67;;;6.00;89.70;;;;;;5034184;28;20037;-51
2022/01/25 13:09:26;;;;;;;48.97;28.88;;;6.10;89.70;;;;;;5033005;28;20124;-50
2022/01/25 13:17:05;;;;;;;50.88;29.63;;;6.00;89.90;;;;;;5034264;28;20057;-52
2022/01/25 13:19:37;;;;;;;44.53;26.80;;;6.00;90.00;;;;;;5033461;28;20467;-50
2022/01/25 13:22:10;;;;;;;50.97;30.33;;;6.00;90.00;;;;;;5033689;28;20037;-50
2022/01/25 13:24:45;;;;;;;42.55;25.17;;;6.10;90.10;;;;;;5033740;28;20037;-50
2022/01/25 13:27:16;;;;;;;40.38;25.17;;;6.10;90.10;;;;;;5033995;28;20104;-51
2022/01/25 13:32:37;;;;;;;37.70;21.90;;;6.20;90.10;;;;;;5033717;28;20036;-50
2022/01/25 13:35:13;;;;;;;39.25;22.00;;;6.20;90.00;;;;;;5033909;28;20033;-49
2022/01/25 13:37:38;;;;;;;37.08;20.95;;;6.20;90.00;;;;;;5014338;28;20026;-47
2022/01/25 13:40:12;;;;;;;33.67;20.95;;;6.20;89.90;;;;;;5026224;28;20474;-47
2022/01/25 13:42:55;;;;;;;32.35;18.40;;;6.20;90.10;;;;;;5033603;28;20036;-48
2022/01/25 13:48:09;;;;;;;35.60;18.02;;;6.10;89.80;;;;;;5033697;28;20355;-48
2022/01/25 13:50:36;;;;;;;25.57;16.60;;;6.10;89.80;;;;;;5032694;28;20037;-46
2022/01/25 13:53:07;;;;;;;27.05;15.85;;;6.10;89.80;;;;;;5033409;28;20055;-46
2022/01/25 13:55:33;;;;;;;27.73;16.52;;;6.00;89.90;;;;;;5028334;28;20108;-50
2022/01/25 13:57:59;;;;;;;33.13;17.95;;;6.10;89.90;;;;;;5033272;28;20400;-48
2022/01/25 14:00:26;;;;;;;31.35;17.02;;;6.20;90.10;;;;;;5032406;28;20040;-47
2022/01/25 14:02:57;;;;;;;26.70;16.80;;;6.20;89.80;;;;;;5031833;28;20017;-49
2022/01/25 14:05:23;;;;;;;28.58;17.38;;;6.20;89.80;;;;;;5033533;28;20030;-49
2022/01/25 14:07:54;;;;;;;30.50;17.73;;;6.10;89.60;;;;;;5032726;28;20029;-51
2022/01/25 14:10:26;;;;;;;27.10;17.58;;;6.10;89.70;;;;;;5033303;28;20037;-46
2022/01/25 14:21:54;;;;;;;28.73;15.88;;;5.90;89.50;;;;;;5028154;28;20095;-47
2022/01/25 14:24:32;;;;;;;29.50;16.92;;;5.90;89.60;;;;;;5032619;28;20014;-47
2022/01/25 14:26:58;;;;;;;30.30;18.05;;;5.90;89.80;;;;;;5033179;28;20033;-48
2022/01/25 14:29:24;;;;;;;28.48;18.15;;;5.90;90.00;;;;;;5032760;28;20044;-48
2022/01/25 14:31:50;;;;;;;37.22;18.33;;;5.90;90.00;;;;;;5033290;28;20057;-49
2022/01/25 14:34:18;;;;;;;33.00;18.08;;;5.90;90.00;;;;;;5032952;28;20072;-49
2022/01/25 14:36:47;;;;;;;29.85;17.80;;;5.90;89.90;;;;;;5033139;28;20029;-47
2022/01/25 14:39:15;;;;;;;30.10;18.13;;;5.90;89.90;;;;;;5032755;28;20362;-50
2022/01/25 14:41:41;;;;;;;37.08;19.40;;;5.90;90.00;;;;;;5032567;28;20033;-52
2022/01/25 14:44:11;;;;;;;30.45;18.80;;;5.90;90.00;;;;;;5031352;28;20378;-52
2022/01/25 14:46:42;;;;;;;28.73;17.38;;;5.90;90.10;;;;;;5032357;28;20033;-48
2022/01/25 14:49:22;;;;;;;35.22;20.02;;;5.90;90.00;;;;;;5031917;28;20028;-49
2022/01/25 14:51:56;;;;;;;41.17;22.73;;;5.90;90.00;;;;;;5032488;28;20653;-45
2022/01/25 14:54:28;;;;;;;37.53;21.20;;;5.90;90.10;;;;;;5031512;28;20026;-47
2022/01/25 14:56:57;;;;;;;36.30;21.33;;;6.00;90.10;;;;;;5013137;28;20029;-47
2022/01/25 14:59:31;;;;;;;32.03;19.98;;;6.00;90.00;;;;;;5028822;28;20040;-48